createdAt,value
2019-05-01T00:00:26.699Z,20.97
2019-05-01T00:03:24.287Z,21.33
2019-05-01T00:05:56.368Z,21.85
2019-05-01T00:08:24.926Z,20.23
2019-05-01T00:10:53.605Z,21.25
2019-05-01T00:13:22.533Z,21.37
2019-05-01T00:15:51.564Z,20.37
2019-05-01T00:18:20.242Z,21.20
2019-05-01T00:20:48.662Z,21.25
2019-05-01T00:23:17.310Z,18.92
2019-05-01T00:25:46.062Z,21.62
2019-05-01T00:28:15.066Z,19.65
2019-05-01T00:30:43.826Z,18.30
2019-05-01T00:33:12.475Z,17.80
2019-05-01T00:35:41.095Z,18.05
2019-05-01T00:38:11.958Z,17.65
2019-05-01T00:40:40.720Z,17.35
2019-05-01T00:43:09.616Z,17.10
2019-05-01T00:45:38.290Z,18.45
2019-05-01T00:48:06.706Z,16.65
2019-05-01T00:50:35.694Z,18.05
2019-05-01T00:53:04.645Z,18.10
2019-05-01T00:55:52.562Z,17.82
2019-05-01T00:58:49.356Z,17.20
2019-05-01T01:01:35.928Z,17.65
2019-05-01T01:04:04.692Z,18.10
2019-05-01T01:06:33.402Z,16.27
2019-05-01T01:09:01.872Z,16.62
2019-05-01T01:11:30.528Z,22.30
2019-05-01T01:13:59.305Z,16.87
2019-05-01T01:16:27.714Z,16.73
2019-05-01T01:18:56.214Z,16.35
2019-05-01T01:21:25.399Z,16.93
2019-05-01T01:23:53.778Z,14.43
2019-05-01T01:26:23.035Z,16.07
2019-05-01T01:28:51.932Z,16.02
2019-05-01T01:31:20.370Z,15.65
2019-05-01T01:33:50.662Z,16.57
2019-05-01T01:36:19.011Z,15.35
2019-05-01T01:38:49.511Z,15.75
2019-05-01T01:41:18.656Z,15.23
2019-05-01T01:44:04.492Z,14.20
2019-05-01T01:46:34.349Z,15.80
2019-05-01T01:49:03.241Z,15.10
2019-05-01T01:51:32.067Z,15.98
2019-05-01T01:54:01.708Z,18.32
2019-05-01T01:56:31.025Z,16.12
2019-05-01T01:58:59.781Z,17.73
2019-05-01T02:01:54.127Z,17.15
2019-05-01T02:04:45.813Z,16.85
2019-05-01T02:07:14.258Z,16.50
2019-05-01T02:09:43.178Z,17.23
2019-05-01T02:12:12.690Z,17.75
2019-05-01T02:14:41.517Z,15.90
2019-05-01T02:17:10.541Z,18.00
2019-05-01T02:19:39.200Z,17.85
2019-05-01T02:22:07.896Z,19.15
2019-05-01T02:24:36.860Z,16.37
2019-05-01T02:27:11.995Z,17.12
2019-05-01T02:29:46.365Z,16.93
2019-05-01T02:32:18.053Z,16.05
2019-05-01T02:34:51.222Z,17.35
2019-05-01T02:37:22.733Z,15.83
2019-05-01T02:39:57.710Z,17.15
2019-05-01T02:42:31.774Z,15.80
2019-05-01T02:45:03.686Z,15.60
2019-05-01T02:47:35.177Z,15.48
2019-05-01T02:50:11.178Z,14.87
2019-05-01T02:52:42.668Z,14.47
2019-05-01T02:55:21.186Z,15.15
2019-05-01T02:57:51.004Z,14.83
2019-05-01T03:00:19.593Z,13.50
2019-05-01T03:02:48.803Z,14.95
2019-05-01T03:05:17.816Z,13.98
2019-05-01T03:07:46.605Z,12.98
2019-05-01T03:10:16.092Z,13.68
2019-05-01T03:12:48.954Z,12.73
2019-05-01T03:15:21.867Z,12.55
2019-05-01T03:18:05.391Z,10.88
2019-05-01T03:20:57.294Z,12.65
2019-05-01T03:23:45.385Z,11.30
2019-05-01T03:26:14.874Z,10.28
2019-05-01T03:31:13.849Z,10.23
2019-05-01T03:33:42.736Z,10.68
2019-05-01T03:36:12.573Z,10.78
2019-05-01T03:38:41.658Z,12.03
2019-05-01T03:41:12.191Z,10.30
2019-05-01T03:43:40.973Z,12.80
2019-05-01T03:46:10.167Z,11.33
2019-05-01T03:48:39.092Z,11.95
2019-05-01T03:51:08.102Z,11.03
2019-05-01T03:53:36.798Z,10.72
2019-05-01T03:56:06.034Z,10.55
2019-05-01T03:58:34.531Z,10.55
2019-05-01T04:01:20.147Z,11.28
2019-05-01T04:03:54.936Z,10.55
2019-05-01T04:06:23.683Z,11.40
2019-05-01T04:08:52.690Z,11.68
2019-05-01T04:11:21.740Z,10.80
2019-05-01T04:13:50.862Z,11.10
2019-05-01T04:16:20.727Z,10.78
2019-05-01T04:18:49.511Z,10.63
2019-05-01T04:21:20.964Z,11.83
2019-05-01T04:23:50.192Z,11.00
2019-05-01T04:26:18.969Z,11.18
2019-05-01T04:29:03.667Z,10.72
2019-05-01T04:31:45.783Z,10.10
2019-05-01T04:34:32.999Z,10.63
2019-05-01T04:37:05.684Z,9.70
2019-05-01T04:39:34.506Z,11.20
2019-05-01T04:44:33.205Z,9.85
2019-05-01T04:47:02.845Z,9.80
2019-05-01T04:49:31.702Z,11.12
2019-05-01T04:52:00.833Z,8.85
2019-05-01T04:54:29.921Z,9.60
2019-05-01T04:56:59.127Z,9.85
2019-05-01T04:59:27.619Z,10.55
2019-05-01T05:01:59.703Z,8.50
2019-05-01T05:04:29.388Z,9.95
2019-05-01T05:06:59.223Z,10.00
2019-05-01T05:09:41.430Z,8.73
2019-05-01T05:12:17.208Z,8.93
2019-05-01T05:14:50.545Z,9.05
2019-05-01T05:17:21.409Z,8.13
2019-05-01T05:19:50.187Z,8.65
2019-05-01T05:22:19.055Z,7.42
2019-05-01T05:24:47.983Z,8.55
2019-05-01T05:27:17.897Z,8.65
2019-05-01T05:29:50.709Z,7.40
2019-05-01T05:32:23.834Z,7.85
2019-05-01T05:34:56.179Z,6.97
2019-05-01T05:37:31.641Z,7.55
2019-05-01T05:40:02.054Z,7.80
2019-05-01T05:42:33.287Z,8.03
2019-05-01T05:45:02.776Z,6.67
2019-05-01T05:47:32.207Z,7.72
2019-05-01T05:50:01.222Z,7.62
2019-05-01T05:52:38.200Z,7.00
2019-05-01T05:55:26.469Z,6.45
2019-05-01T05:58:02.625Z,7.62
2019-05-01T06:01:00.897Z,7.92
2019-05-01T06:03:59.548Z,7.00
2019-05-01T06:06:44.624Z,6.87
2019-05-01T06:09:16.533Z,6.78
2019-05-01T06:12:08.927Z,7.53
2019-05-01T06:14:49.683Z,7.40
2019-05-01T06:17:32.927Z,7.05
2019-05-01T06:20:25.954Z,8.70
2019-05-01T06:23:10.138Z,6.85
2019-05-01T06:25:43.437Z,6.62
2019-05-01T06:28:13.559Z,6.85
2019-05-01T06:30:47.041Z,7.55
2019-05-01T06:33:14.139Z,7.03
2019-05-01T06:35:42.487Z,7.30
2019-05-01T06:38:15.926Z,6.72
2019-05-01T06:40:47.616Z,7.35
2019-05-01T06:43:37.067Z,6.92
2019-05-01T06:46:27.217Z,7.15
2019-05-01T06:49:01.389Z,6.25
2019-05-01T06:51:43.438Z,7.30
2019-05-01T06:54:16.223Z,6.37
2019-05-01T06:56:46.105Z,7.30
2019-05-01T07:01:46.938Z,7.08
2019-05-01T07:04:15.743Z,7.60
2019-05-01T07:06:44.471Z,7.37
2019-05-01T07:09:27.130Z,7.95
2019-05-01T07:11:47.548Z,7.58
2019-05-01T07:14:17.429Z,7.58
2019-05-01T07:16:45.857Z,7.08
2019-05-01T07:19:16.791Z,7.42
2019-05-01T07:21:45.497Z,6.75
2019-05-01T07:24:14.594Z,7.33
2019-05-01T07:26:43.960Z,7.37
2019-05-01T07:29:16.854Z,8.18
2019-05-01T07:31:45.679Z,8.05
2019-05-01T07:34:16.639Z,7.20
2019-05-01T07:36:45.678Z,7.25
2019-05-01T07:39:15.920Z,6.33
2019-05-01T07:41:45.222Z,6.90
2019-05-01T07:44:23.313Z,6.90
2019-05-01T07:47:14.954Z,7.12
2019-05-01T07:49:54.667Z,6.58
2019-05-01T07:52:24.647Z,7.72
2019-05-01T07:54:54.970Z,7.00
2019-05-01T07:57:24.036Z,6.15
2019-05-01T07:59:52.766Z,7.20
2019-05-01T08:02:21.353Z,6.92
2019-05-01T08:04:49.905Z,6.58
2019-05-01T08:07:18.822Z,6.95
2019-05-01T08:09:50.334Z,5.95
2019-05-01T08:12:18.966Z,5.92
2019-05-01T08:14:52.321Z,5.75
2019-05-01T08:17:20.367Z,7.40
2019-05-01T08:19:54.566Z,6.08
2019-05-01T08:22:26.209Z,6.22
2019-05-01T08:24:58.597Z,5.72
2019-05-01T08:30:20.347Z,5.97
2019-05-01T08:32:57.700Z,5.58
2019-05-01T08:35:31.737Z,6.08
2019-05-01T08:38:00.071Z,6.37
2019-05-01T08:40:31.528Z,5.40
2019-05-01T08:43:00.215Z,5.95
2019-05-01T08:46:11.905Z,5.37
2019-05-01T08:48:47.985Z,5.37
2019-05-01T08:51:16.666Z,5.42
2019-05-01T08:53:45.365Z,5.47
2019-05-01T08:56:16.984Z,5.40
2019-05-01T08:58:44.754Z,5.60
2019-05-01T09:01:16.426Z,5.20
2019-05-01T09:03:45.036Z,5.67
2019-05-01T09:06:13.690Z,5.67
2019-05-01T09:08:42.343Z,5.60
2019-05-01T09:11:11.035Z,5.10
2019-05-01T09:13:39.746Z,5.50
2019-05-01T09:16:08.144Z,5.35
2019-05-01T09:18:36.846Z,4.65
2019-05-01T09:21:05.532Z,4.97
2019-05-01T09:23:34.766Z,5.10
2019-05-01T09:26:22.951Z,5.33
2019-05-01T09:28:57.263Z,5.15
2019-05-01T09:31:27.763Z,5.35
2019-05-01T09:33:56.611Z,5.28
2019-05-01T09:36:25.463Z,5.85
2019-05-01T09:38:54.252Z,4.15
2019-05-01T09:41:37.437Z,4.53
2019-05-01T09:46:25.751Z,4.83
2019-05-01T09:48:54.338Z,4.83
2019-05-01T09:51:49.342Z,5.20
2019-05-01T09:54:43.068Z,4.72
2019-05-01T09:57:11.113Z,5.60
2019-05-01T09:59:40.298Z,4.72
2019-05-01T10:02:09.218Z,5.45
2019-05-01T10:04:37.546Z,4.28
2019-05-01T10:07:07.388Z,4.85
2019-05-01T10:09:36.143Z,4.42
2019-05-01T10:12:04.931Z,5.03
2019-05-01T10:14:36.321Z,5.05
2019-05-01T10:17:05.540Z,5.08
2019-05-01T10:19:34.420Z,4.75
2019-05-01T10:22:03.756Z,4.65
2019-05-01T10:24:37.522Z,4.22
2019-05-01T10:27:04.855Z,4.53
2019-05-01T10:30:01.641Z,5.22
2019-05-01T10:32:37.053Z,5.47
2019-05-01T10:35:19.163Z,4.97
2019-05-01T10:37:48.127Z,4.42
2019-05-01T10:40:17.162Z,4.50
2019-05-01T10:42:46.329Z,5.25
2019-05-01T10:45:15.170Z,5.17
2019-05-01T10:47:45.542Z,4.45
2019-05-01T10:50:14.290Z,4.70
2019-05-01T10:52:43.203Z,4.60
2019-05-01T10:55:12.065Z,4.25
2019-05-01T10:57:42.150Z,4.55
2019-05-01T11:00:11.243Z,4.95
2019-05-01T11:02:40.093Z,4.20
2019-05-01T11:05:09.326Z,4.65
2019-05-01T11:07:37.916Z,4.57
2019-05-01T11:10:07.494Z,4.10
2019-05-01T11:12:36.065Z,5.58
2019-05-01T11:15:05.473Z,4.90
2019-05-01T11:17:34.146Z,4.65
2019-05-01T11:20:03.873Z,4.97
2019-05-01T11:22:32.378Z,4.15
2019-05-01T11:25:01.941Z,3.98
2019-05-01T11:27:30.695Z,3.95
2019-05-01T11:29:59.723Z,4.42
2019-05-01T11:32:51.566Z,5.05
2019-05-01T11:35:40.286Z,4.85
2019-05-01T11:38:20.515Z,5.53
2019-05-01T11:43:25.181Z,4.42
2019-05-01T11:45:53.893Z,4.97
2019-05-01T11:48:25.003Z,4.45
2019-05-01T11:50:55.253Z,5.10
2019-05-01T11:53:23.865Z,5.10
2019-05-01T11:55:52.642Z,4.62
2019-05-01T11:58:21.254Z,5.35
2019-05-01T12:00:51.926Z,4.83
2019-05-01T12:03:20.415Z,4.25
2019-05-01T12:05:49.210Z,4.20
2019-05-01T12:08:17.994Z,4.20
2019-05-01T12:10:46.555Z,4.20
2019-05-01T12:13:15.235Z,4.28
2019-05-01T12:15:45.851Z,3.87
2019-05-01T12:18:14.408Z,4.40
2019-05-01T12:20:42.907Z,4.47
2019-05-01T12:23:11.820Z,4.50
2019-05-01T12:25:40.219Z,3.67
2019-05-01T12:28:08.904Z,4.50
2019-05-01T12:30:38.118Z,4.78
2019-05-01T12:33:06.899Z,5.08
2019-05-01T12:35:36.588Z,4.80
2019-05-01T12:38:05.169Z,4.00
2019-05-01T12:40:34.153Z,3.70
2019-05-01T12:43:02.969Z,4.22
2019-05-01T12:45:31.561Z,4.00
2019-05-01T12:48:02.692Z,4.40
2019-05-01T12:50:33.578Z,3.77
2019-05-01T12:53:36.790Z,3.33
2019-05-01T12:56:31.156Z,4.00
2019-05-01T12:58:59.806Z,4.50
2019-05-01T13:01:28.795Z,3.75
2019-05-01T13:03:57.167Z,3.80
2019-05-01T13:06:26.227Z,3.95
2019-05-01T13:08:54.634Z,5.20
2019-05-01T13:11:23.348Z,3.92
2019-05-01T13:13:51.866Z,3.87
2019-05-01T13:16:20.634Z,3.50
2019-05-01T13:18:49.669Z,4.37
2019-05-01T13:21:18.251Z,3.45
2019-05-01T13:23:46.792Z,3.70
2019-05-01T13:26:33.948Z,3.77
2019-05-01T13:29:40.446Z,3.87
2019-05-01T13:32:16.674Z,3.35
2019-05-01T13:34:45.688Z,3.12
2019-05-01T13:37:15.252Z,3.42
2019-05-01T13:39:43.999Z,3.20
2019-05-01T13:42:12.720Z,3.33
2019-05-01T13:44:41.265Z,5.37
2019-05-01T13:49:40.199Z,3.65
2019-05-01T13:54:39.147Z,3.77
2019-05-01T13:57:08.014Z,2.92
2019-05-01T13:59:36.871Z,3.00
2019-05-01T14:02:05.563Z,3.22
2019-05-01T14:04:34.511Z,3.33
2019-05-01T14:07:15.747Z,3.62
2019-05-01T14:09:34.949Z,3.67
2019-05-01T14:12:04.072Z,3.23
2019-05-01T14:14:32.640Z,3.27
2019-05-01T14:17:02.106Z,3.52
2019-05-01T14:19:31.953Z,3.08
2019-05-01T14:22:19.444Z,3.47
2019-05-01T14:24:50.722Z,2.95
2019-05-01T14:27:19.118Z,2.92
2019-05-01T14:29:48.154Z,2.98
2019-05-01T14:32:18.005Z,3.90
2019-05-01T14:34:50.415Z,3.00
2019-05-01T14:37:29.452Z,2.83
2019-05-01T14:39:57.333Z,2.72
2019-05-01T14:42:29.795Z,2.90
2019-05-01T14:45:02.553Z,2.87
2019-05-01T14:47:34.804Z,3.35
2019-05-01T14:50:04.731Z,3.15
2019-05-01T14:52:35.473Z,3.67
2019-05-01T14:55:05.848Z,3.27
2019-05-01T15:00:02.857Z,3.17
2019-05-01T15:02:31.707Z,3.27
2019-05-01T15:05:00.151Z,3.35
2019-05-01T15:07:42.465Z,4.60
2019-05-01T15:09:59.709Z,3.87
2019-05-01T15:12:28.640Z,3.42
2019-05-01T15:15:26.530Z,2.90
2019-05-01T15:18:07.090Z,3.08
2019-05-01T15:20:35.999Z,3.33
2019-05-01T15:23:06.088Z,4.60
2019-05-01T15:25:35.264Z,3.40
2019-05-01T15:28:05.275Z,3.85
2019-05-01T15:30:33.992Z,3.52
2019-05-01T15:33:02.766Z,3.27
2019-05-01T15:35:33.169Z,3.75
2019-05-01T15:38:05.923Z,3.55
2019-05-01T15:40:44.046Z,3.80
2019-05-01T15:43:28.465Z,3.62
2019-05-01T15:45:57.217Z,4.20
2019-05-01T15:48:26.712Z,3.65
2019-05-01T15:50:55.556Z,3.70
2019-05-01T15:53:26.190Z,3.92
2019-05-01T15:55:55.735Z,3.92
2019-05-01T15:58:24.273Z,4.17
2019-05-01T16:00:53.446Z,12.03
2019-05-01T16:03:22.005Z,3.83
2019-05-01T16:05:50.767Z,4.85
2019-05-01T16:08:19.318Z,4.20
2019-05-01T16:11:03.124Z,4.20
2019-05-01T16:13:32.397Z,4.15
2019-05-01T16:16:02.365Z,4.55
2019-05-01T16:18:31.057Z,4.05
2019-05-01T16:21:00.039Z,4.17
2019-05-01T16:23:29.403Z,5.20
2019-05-01T16:25:58.052Z,4.92
2019-05-01T16:28:26.638Z,5.12
2019-05-01T16:30:57.003Z,5.03
2019-05-01T16:33:25.883Z,4.50
2019-05-01T16:35:54.947Z,4.97
2019-05-01T16:38:33.599Z,4.70
2019-05-01T16:41:05.844Z,5.08
2019-05-01T16:43:34.806Z,4.67
2019-05-01T16:46:04.050Z,4.65
2019-05-01T16:51:03.065Z,4.83
2019-05-01T16:53:34.234Z,5.70
2019-05-01T16:56:03.140Z,4.85
2019-05-01T16:58:33.299Z,5.22
2019-05-01T17:01:24.539Z,5.17
2019-05-01T17:04:10.787Z,5.55
2019-05-01T17:07:01.807Z,6.17
2019-05-01T17:09:50.488Z,5.15
2019-05-01T17:12:22.460Z,5.05
2019-05-01T17:14:51.362Z,5.87
2019-05-01T17:17:21.770Z,6.17
2019-05-01T17:19:50.657Z,5.67
2019-05-01T17:22:19.392Z,5.78
2019-05-01T17:24:48.011Z,7.03
2019-05-01T17:27:16.856Z,5.42
2019-05-01T17:29:45.355Z,5.45
2019-05-01T17:32:16.475Z,5.42
2019-05-01T17:34:45.549Z,5.58
2019-05-01T17:37:14.244Z,6.55
2019-05-01T17:39:43.274Z,5.67
2019-05-01T17:42:11.957Z,5.35
2019-05-01T17:44:40.616Z,5.35
2019-05-01T17:47:09.315Z,5.28
2019-05-01T17:52:10.058Z,5.63
2019-05-01T17:54:40.901Z,5.12
2019-05-01T17:57:09.606Z,5.17
2019-05-01T17:59:38.166Z,5.03
2019-05-01T18:02:32.379Z,5.75
2019-05-01T18:05:32.243Z,5.37
2019-05-01T18:08:01.892Z,5.77
2019-05-01T18:10:34.055Z,6.05
2019-05-01T18:13:02.211Z,6.28
2019-05-01T18:15:30.559Z,6.10
2019-05-01T18:17:59.597Z,5.92
2019-05-01T18:20:28.633Z,5.80
2019-05-01T18:23:13.540Z,5.70
2019-05-01T18:25:46.098Z,6.17
2019-05-01T18:28:30.097Z,6.47
2019-05-01T18:30:59.032Z,6.37
2019-05-01T18:33:27.950Z,6.42
2019-05-01T18:35:56.905Z,5.95
2019-05-01T18:38:47.639Z,5.40
2019-05-01T18:41:22.985Z,5.35
2019-05-01T18:43:51.610Z,7.08
2019-05-01T18:46:20.379Z,5.85
2019-05-01T18:48:49.164Z,6.92
2019-05-01T18:51:19.597Z,6.60
2019-05-01T18:53:48.422Z,6.28
2019-05-01T18:58:47.461Z,6.80
2019-05-01T19:01:16.475Z,6.62
2019-05-01T19:03:45.067Z,7.28
2019-05-01T19:06:13.498Z,6.00
2019-05-01T19:08:42.235Z,6.95
2019-05-01T19:11:13.083Z,7.25
2019-05-01T19:13:41.660Z,29.00
2019-05-01T19:16:10.650Z,7.47
2019-05-01T19:18:38.994Z,7.08
2019-05-01T19:21:08.039Z,7.15
2019-05-01T19:23:36.755Z,7.53
2019-05-01T19:26:06.771Z,8.25
2019-05-01T19:28:35.633Z,8.83
2019-05-01T19:31:04.578Z,8.80
2019-05-01T19:33:33.285Z,9.25
2019-05-01T19:36:08.183Z,8.23
2019-05-01T19:38:34.902Z,8.10
2019-05-01T19:41:08.891Z,7.78
2019-05-01T19:43:40.452Z,7.90
2019-05-01T19:46:07.593Z,9.10
2019-05-01T19:48:36.126Z,9.20
2019-05-01T19:51:04.898Z,8.73
2019-05-01T19:53:33.465Z,8.63
2019-05-01T19:56:02.176Z,8.40
2019-05-01T19:58:32.497Z,9.50
2019-05-01T20:01:04.467Z,8.55
2019-05-01T20:03:36.223Z,9.03
2019-05-01T20:06:06.092Z,7.95
2019-05-01T20:08:36.444Z,9.20
2019-05-01T20:11:05.737Z,8.28
2019-05-01T20:13:35.705Z,8.50
2019-05-01T20:16:06.981Z,7.80
2019-05-01T20:18:35.801Z,7.85
2019-05-01T20:21:05.703Z,8.73
2019-05-01T20:23:35.892Z,7.55
2019-05-01T20:26:04.927Z,7.33
2019-05-01T20:28:37.405Z,7.17
2019-05-01T20:31:06.289Z,7.70
2019-05-01T20:33:39.093Z,7.47
2019-05-01T20:36:06.598Z,7.40
2019-05-01T20:38:35.686Z,7.90
2019-05-01T20:41:04.553Z,7.22
2019-05-01T20:43:33.574Z,6.37
2019-05-01T20:46:02.957Z,6.40
2019-05-01T20:51:02.408Z,6.83
2019-05-01T20:53:32.458Z,5.55
2019-05-01T20:56:12.405Z,5.78
2019-05-01T20:58:43.431Z,5.55
2019-05-01T21:01:12.042Z,5.35
2019-05-01T21:03:44.099Z,4.95
2019-05-01T21:06:18.402Z,5.17
2019-05-01T21:09:08.289Z,5.95
2019-05-01T21:11:42.263Z,5.90
2019-05-01T21:14:20.047Z,6.47
2019-05-01T21:16:43.840Z,7.12
2019-05-01T21:19:12.724Z,6.37
2019-05-01T21:21:43.330Z,5.75
2019-05-01T21:26:43.398Z,6.20
2019-05-01T21:29:14.550Z,7.42
2019-05-01T21:31:44.091Z,6.60
2019-05-01T21:34:14.559Z,5.78
2019-05-01T21:36:47.373Z,6.58
2019-05-01T21:39:14.962Z,6.50
2019-05-01T21:41:44.595Z,6.47
2019-05-01T21:44:13.259Z,5.75
2019-05-01T21:46:43.195Z,6.17
2019-05-01T21:49:13.031Z,5.75
2019-05-01T21:51:45.931Z,5.75
2019-05-01T21:56:44.911Z,6.72
2019-05-01T22:01:44.329Z,7.25
2019-05-01T22:04:14.272Z,7.70
2019-05-01T22:06:46.767Z,7.55
2019-05-01T22:09:18.567Z,7.50
2019-05-01T22:11:47.220Z,7.30
2019-05-01T22:14:42.049Z,8.30
2019-05-01T22:17:19.238Z,8.08
2019-05-01T22:19:48.084Z,7.50
2019-05-01T22:22:28.796Z,9.80
2019-05-01T22:25:09.983Z,8.75
2019-05-01T22:27:42.773Z,9.78
2019-05-01T22:30:35.265Z,9.00
2019-05-01T22:33:04.576Z,9.03
2019-05-01T22:35:36.275Z,9.15
2019-05-01T22:38:05.686Z,9.98
2019-05-01T22:40:44.236Z,10.60
2019-05-01T22:43:12.818Z,10.38
2019-05-01T22:45:41.469Z,10.58
2019-05-01T22:48:10.795Z,11.20
2019-05-01T22:50:39.423Z,11.75
2019-05-01T22:53:12.836Z,10.90
2019-05-01T22:55:38.621Z,11.93
2019-05-01T22:58:09.182Z,12.15
2019-05-01T23:00:44.301Z,11.75
2019-05-01T23:03:19.772Z,11.12
2019-05-01T23:05:48.736Z,14.18
2019-05-01T23:08:17.274Z,13.72
2019-05-01T23:10:46.928Z,15.65
2019-05-01T23:13:16.767Z,15.60
2019-05-01T23:15:45.650Z,17.00
2019-05-01T23:18:15.592Z,17.60
2019-05-01T23:20:44.617Z,18.75
2019-05-01T23:23:13.075Z,17.15
2019-05-01T23:25:42.417Z,19.62
2019-05-01T23:28:11.226Z,19.45
2019-05-01T23:30:40.129Z,19.42
2019-05-01T23:33:08.619Z,20.57
2019-05-01T23:35:37.354Z,20.08
2019-05-01T23:38:06.036Z,20.27
2019-05-01T23:40:35.235Z,19.77
2019-05-01T23:43:04.840Z,20.48
2019-05-01T23:45:33.385Z,20.05
2019-05-01T23:48:02.399Z,19.55
2019-05-01T23:50:32.259Z,18.77
2019-05-01T23:53:01.155Z,18.65
2019-05-01T23:55:30.817Z,18.57
2019-05-01T23:57:59.484Z,18.32
